createdAt,value
2022-09-01T00:09:32.305Z,59
2022-09-01T00:29:34.285Z,60
2022-09-01T00:39:35.308Z,60
2022-09-01T00:49:35.589Z,61
2022-09-01T00:59:35.892Z,61
2022-09-01T01:09:36.805Z,62
2022-09-01T01:19:38.968Z,62
2022-09-01T01:29:37.983Z,63
2022-09-01T01:39:38.250Z,64
2022-09-01T01:49:38.403Z,64
2022-09-01T01:59:38.528Z,64
2022-09-01T02:09:39.399Z,65
2022-09-01T02:19:39.762Z,65
2022-09-01T02:29:43.671Z,66
2022-09-01T02:39:41.526Z,67
2022-09-01T02:49:42.098Z,67
2022-09-01T02:59:43.859Z,68
2022-09-01T03:09:43.990Z,68
2022-09-01T03:19:44.100Z,68
2022-09-01T03:29:44.679Z,69
2022-09-01T03:39:45.479Z,69
2022-09-01T03:49:46.560Z,69
2022-09-01T03:59:47.589Z,69
2022-09-01T04:09:47.739Z,69
2022-09-01T04:19:48.333Z,70
2022-09-01T04:29:49.356Z,70
2022-09-01T04:39:53.792Z,70
2022-09-01T04:49:50.826Z,71
2022-09-01T04:59:51.791Z,71
2022-09-01T05:09:52.427Z,71
2022-09-01T05:19:53.114Z,70
2022-09-01T05:29:53.492Z,70
2022-09-01T05:39:54.260Z,70
2022-09-01T05:49:54.473Z,69
2022-09-01T06:09:55.546Z,69
2022-09-01T06:19:56.483Z,69
2022-09-01T06:29:57.384Z,68
2022-09-01T06:39:57.715Z,67
2022-09-01T06:49:58.344Z,67
2022-09-01T06:59:58.833Z,66
2022-09-01T07:20:23.118Z,65
2022-09-01T07:30:01.016Z,64
2022-09-01T07:42:58.187Z,66
2022-09-01T08:00:03.232Z,60
2022-09-01T08:10:03.540Z,59
2022-09-01T08:20:03.998Z,59
2022-09-01T08:30:04.764Z,58
2022-09-01T08:40:05.566Z,56
2022-09-01T08:50:06.328Z,55
2022-09-01T09:00:06.526Z,53
2022-09-01T09:10:07.547Z,52
2022-09-01T09:20:08.847Z,51
2022-09-01T09:30:11.253Z,49
2022-09-01T09:40:09.995Z,49
2022-09-01T09:50:10.014Z,48
2022-09-01T10:00:10.327Z,47
2022-09-01T10:10:10.519Z,47
2022-09-01T10:10:32.331Z,47
2022-09-01T10:20:16.997Z,47
2022-09-01T10:30:19.101Z,46
2022-09-01T10:40:20.507Z,46
2022-09-01T10:50:18.092Z,46
2022-09-01T11:00:35.335Z,46
2022-09-01T11:10:31.170Z,44
2022-09-01T11:20:19.791Z,43
2022-09-01T11:30:20.588Z,41
2022-09-01T11:40:21.145Z,42
2022-09-01T11:50:21.214Z,43
2022-09-01T12:00:22.278Z,43
2022-09-01T12:10:22.499Z,42
2022-09-01T12:20:26.776Z,41
2022-09-01T12:30:24.261Z,40
2022-09-01T12:40:25.135Z,39
2022-09-01T13:00:26.370Z,37
2022-09-01T13:10:27.031Z,35
2022-09-01T13:20:27.143Z,35
2022-09-01T13:30:27.842Z,35
2022-09-01T13:40:28.435Z,34
2022-09-01T13:51:13.885Z,35
2022-09-01T14:10:30.375Z,34
2022-09-01T14:20:31.467Z,34
2022-09-01T14:30:31.955Z,32
2022-09-01T14:40:32.078Z,33
2022-09-01T14:50:32.878Z,33
2022-09-01T15:00:33.036Z,33
2022-09-01T15:10:33.296Z,33
2022-09-01T15:20:33.930Z,33
2022-09-01T15:30:34.417Z,33
2022-09-01T15:40:34.697Z,33
2022-09-01T15:50:35.626Z,34
2022-09-01T16:00:36.671Z,34
2022-09-01T16:10:37.504Z,34
2022-09-01T16:20:37.645Z,35
2022-09-01T16:30:38.659Z,36
2022-09-01T16:40:39.725Z,37
2022-09-01T16:50:40.645Z,38
2022-09-01T17:00:41.671Z,39
2022-09-01T17:10:42.614Z,40
2022-09-01T17:20:43.028Z,41
2022-09-01T17:30:44.856Z,41
2022-09-01T17:40:44.288Z,41
2022-09-01T18:00:44.940Z,43
2022-09-01T18:10:45.802Z,43
2022-09-01T18:20:46.896Z,44
2022-09-01T18:30:52.783Z,45
2022-09-01T18:40:48.106Z,45
2022-09-01T18:50:48.584Z,46
2022-09-01T19:00:52.181Z,47
2022-09-01T19:10:49.968Z,48
2022-09-01T19:20:50.085Z,49
2022-09-01T19:30:50.561Z,50
2022-09-01T19:50:51.253Z,51
2022-09-01T20:00:51.611Z,52
2022-09-01T20:10:56.143Z,52
2022-09-01T20:20:53.264Z,53
2022-09-01T20:30:53.894Z,53
2022-09-01T20:40:54.567Z,54
2022-09-01T20:50:54.691Z,54
2022-09-01T21:00:54.840Z,55
2022-09-01T21:10:55.254Z,55
2022-09-01T21:20:56.116Z,55
2022-09-01T21:30:56.603Z,56
2022-09-01T21:40:57.630Z,56
2022-09-01T21:50:58.684Z,57
2022-09-01T22:10:59.883Z,57
2022-09-01T22:21:00.804Z,58
2022-09-01T22:31:01.803Z,58
2022-09-01T22:41:02.741Z,58
2022-09-01T22:51:06.931Z,59
2022-09-01T23:01:04.199Z,59
2022-09-01T23:11:04.246Z,58
2022-09-01T23:21:05.338Z,58
2022-09-01T23:31:06.057Z,58
2022-09-01T23:41:06.916Z,58
2022-09-01T23:51:07.641Z,59
